Time;durP1;ratioP1;P1;durP2;ratioP2;P2;SDS_P1;SDS_P2;PMS_P1;PMS_P2;Temp;Humidity;BMP_temperature;BMP_pressure;BME280_temperature;BME280_humidity;BME280_pressure;Samples;Min_cycle;Max_cycle;Signal;HPM_P1;HPM_P2
2022/04/18 00:03:57;;;;;;;31.80;16.40;;;;;;;-0.50;68.75;100366.13;212658;1279;141386;-67
2022/04/18 00:09:00;;;;;;;30.60;15.10;;;;;;;-0.62;68.97;100366.65;213454;1279;141249;-67
2022/04/18 00:14:03;;;;;;;29.60;17.10;;;;;;;-0.70;69.18;100361.98;213018;1279;141776;-69
2022/04/18 00:19:05;;;;;;;38.50;17.40;;;;;;;-0.74;69.28;100356.91;213385;1278;141768;-69
2022/04/18 00:24:10;;;;;;;19.80;11.30;;;;;;;-0.78;69.31;100351.23;213263;1279;142628;-68
2022/04/18 00:29:18;;;;;;;20.00;12.70;;;;;;;-0.81;69.41;100348.52;212955;1279;142322;-69
2022/04/18 00:34:21;;;;;;;24.50;13.60;;;;;;;-0.82;69.55;100343.58;213646;1279;141986;-64
2022/04/18 00:39:23;;;;;;;27.50;15.70;;;;;;;-0.80;69.97;100340.38;213591;1279;143553;-65
2022/04/18 00:44:26;;;;;;;30.30;17.70;;;;;;;-0.78;69.95;100340.89;213747;1279;140689;-64
2022/04/18 00:49:29;;;;;;;31.40;17.30;;;;;;;-0.77;70.13;100333.84;213475;1279;141102;-65
2022/04/18 00:54:33;;;;;;;30.20;18.30;;;;;;;-0.80;70.07;100324.56;212999;1279;142267;-64
2022/04/18 00:59:37;;;;;;;31.80;18.30;;;;;;;-0.84;70.27;100316.20;214695;1277;141772;-66
2022/04/18 01:04:40;;;;;;;33.80;19.00;;;;;;;-0.86;70.38;100307.63;214084;1279;208448;-67
2022/04/18 01:09:44;;;;;;;31.90;16.80;;;;;;;-0.87;70.21;100306.95;213173;1279;142101;-67
2022/04/18 01:14:49;;;;;;;38.10;18.20;;;;;;;-0.95;69.85;100301.64;215407;1279;142391;-65
2022/04/18 01:19:51;;;;;;;28.30;16.00;;;;;;;-1.05;69.89;100296.01;215341;1278;141475;-67
2022/04/18 01:30:22;;;;;;;31.40;17.50;;;;;;;-1.13;70.24;100294.59;215292;1279;139624;-66
2022/04/18 01:35:26;;;;;;;28.40;16.70;;;;;;;-1.15;70.41;100293.36;215016;1279;140378;-69
2022/04/18 01:40:29;;;;;;;32.50;19.10;;;;;;;-1.16;70.49;100294.85;213895;1279;141110;-64
2022/04/18 01:45:32;;;;;;;34.30;17.40;;;;;;;-1.21;70.42;100292.35;213135;1279;141713;-63
2022/04/18 01:50:36;;;;;;;31.90;18.60;;;;;;;-1.26;70.48;100290.73;213062;1277;142370;-62
2022/04/18 01:55:39;;;;;;;25.80;15.20;;;;;;;-1.27;70.56;100286.99;214522;1279;221001;-66
2022/04/18 02:00:42;;;;;;;21.30;15.40;;;;;;;-1.30;70.37;100281.88;212986;1279;141196;-67
2022/04/18 02:05:47;;;;;;;27.00;17.20;;;;;;;-1.38;70.55;100271.81;213413;1279;140111;-67
2022/04/18 02:10:50;;;;;;;22.50;14.40;;;;;;;-1.42;70.74;100272.71;213986;1277;140167;-66
2022/04/18 02:15:58;;;;;;;25.80;13.40;;;;;;;-1.42;71.18;100265.27;213329;1278;140574;-63
2022/04/18 02:21:01;;;;;;;22.20;12.40;;;;;;;-1.45;71.07;100262.23;213675;1279;140840;-67
2022/04/18 02:26:03;;;;;;;27.90;15.30;;;;;;;-1.44;71.43;100257.27;213606;1279;139895;-69
2022/04/18 02:31:09;;;;;;;26.40;15.20;;;;;;;-1.38;71.62;100256.81;213721;1279;141901;-69
2022/04/18 02:36:12;;;;;;;33.80;14.40;;;;;;;-1.29;71.88;100253.77;213937;1278;141600;-69
2022/04/18 02:41:15;;;;;;;26.50;16.70;;;;;;;-1.20;72.04;100256.15;213651;1279;140588;-69
2022/04/18 02:46:18;;;;;;;26.70;16.10;;;;;;;-1.14;71.89;100253.61;213517;1279;142622;-69
2022/04/18 02:51:20;;;;;;;35.70;17.60;;;;;;;-1.18;71.65;100252.95;213517;1277;141971;-66
2022/04/18 02:56:22;;;;;;;25.90;14.20;;;;;;;-1.19;72.04;100248.75;213232;1278;141323;-68
2022/04/18 03:01:24;;;;;;;31.50;16.30;;;;;;;-1.27;71.96;100247.77;214573;1278;140240;-67
2022/04/18 03:06:27;;;;;;;25.80;16.40;;;;;;;-1.28;72.23;100241.46;214181;1278;140884;-66
2022/04/18 03:11:30;;;;;;;28.50;15.70;;;;;;;-1.28;72.40;100242.98;213998;1279;140200;-67
2022/04/18 03:16:32;;;;;;;25.90;14.70;;;;;;;-1.27;72.46;100242.23;213873;1279;140996;-69
2022/04/18 03:21:34;;;;;;;29.50;16.00;;;;;;;-1.26;72.42;100240.05;214288;1278;140699;-69
2022/04/18 03:26:37;;;;;;;25.20;16.00;;;;;;;-1.22;72.66;100237.76;214408;1279;141413;-65
2022/04/18 03:31:39;;;;;;;23.80;14.30;;;;;;;-1.14;72.81;100239.16;214792;1279;141630;-69
2022/04/18 03:42:09;;;;;;;27.40;15.90;;;;;;;-0.97;72.77;100235.79;214352;1279;140904;-66
2022/04/18 03:47:14;;;;;;;28.50;14.40;;;;;;;-0.90;72.86;100238.09;214435;1279;140947;-64
2022/04/18 03:52:16;;;;;;;22.10;13.70;;;;;;;-0.84;72.94;100232.77;213754;1279;140703;-67
2022/04/18 03:57:19;;;;;;;23.20;13.80;;;;;;;-0.85;73.00;100232.88;214292;1279;140533;-66
2022/04/18 04:02:22;;;;;;;21.70;12.70;;;;;;;-0.85;72.75;100236.43;213816;1279;139847;-65
2022/04/18 04:07:25;;;;;;;15.50;9.60;;;;;;;-0.85;72.98;100233.40;213176;1279;140395;-67
2022/04/18 04:12:28;;;;;;;25.80;12.80;;;;;;;-0.82;73.00;100240.95;214277;1277;140176;-66
2022/04/18 04:17:30;;;;;;;18.50;11.20;;;;;;;-0.76;73.02;100239.31;212614;1279;143248;-63
2022/04/18 04:22:53;;;;;;;20.90;10.40;;;;;;;-0.66;73.04;100235.45;213495;1279;141492;-66
2022/04/18 04:27:55;;;;;;;26.00;13.40;;;;;;;-0.57;73.22;100230.86;212976;1279;141424;-66
2022/04/18 04:32:58;;;;;;;16.40;11.50;;;;;;;-0.33;73.47;100230.38;213767;1279;142440;-66
2022/04/18 04:38:00;;;;;;;16.70;10.00;;;;;;;-0.10;73.43;100227.20;213084;1279;140399;-67
2022/04/18 04:43:03;;;;;;;11.80;9.10;;;;;;;0.06;73.51;100219.10;213538;1279;140537;-66
2022/04/18 04:48:05;;;;;;;16.00;10.60;;;;;;;0.24;73.53;100224.03;213953;1279;140269;-67
2022/04/18 04:53:08;;;;;;;18.50;10.10;;;;;;;0.43;73.58;100220.20;213436;1279;139911;-65
2022/04/18 04:58:12;;;;;;;21.30;9.80;;;;;;;0.63;73.46;100226.48;214137;1278;140471;-69
2022/04/18 05:03:14;;;;;;;16.40;9.70;;;;;;;0.91;73.51;100223.41;213021;1279;140062;-66
2022/04/18 05:08:17;;;;;;;13.10;9.10;;;;;;;1.27;73.42;100222.16;214368;1277;142051;-72
2022/04/18 05:13:19;;;;;;;12.20;7.60;;;;;;;1.57;72.75;100221.45;213891;1278;140221;-69
2022/04/18 05:18:21;;;;;;;14.70;9.10;;;;;;;1.69;72.54;100224.52;213721;1279;139539;-67
2022/04/18 05:23:24;;;;;;;13.50;9.20;;;;;;;1.98;72.81;100224.81;214117;1279;140444;-67
2022/04/18 05:28:26;;;;;;;10.30;6.70;;;;;;;2.31;72.53;100222.77;213857;1279;140484;-66
2022/04/18 05:33:35;;;;;;;11.50;7.00;;;;;;;2.68;71.60;100225.45;214382;1279;140754;-68
2022/04/18 05:38:37;;;;;;;13.70;8.70;;;;;;;2.99;71.14;100226.57;215434;1279;140779;-66
2022/04/18 05:43:39;;;;;;;13.50;7.90;;;;;;;3.27;70.20;100229.29;215348;1279;142827;-66
2022/04/18 05:48:42;;;;;;;8.50;6.60;;;;;;;3.54;69.79;100225.42;213251;1279;144110;-66
2022/04/18 05:53:44;;;;;;;10.90;7.20;;;;;;;3.75;69.49;100225.47;214530;1279;139421;-74
2022/04/18 05:58:46;;;;;;;7.50;6.50;;;;;;;3.95;68.74;100225.75;215356;1279;143793;-68
2022/04/18 06:03:48;;;;;;;12.90;7.20;;;;;;;4.30;68.48;100223.73;213291;1279;140351;-65
2022/04/18 06:08:50;;;;;;;23.20;9.00;;;;;;;4.56;67.79;100222.07;214111;1279;139700;-65
2022/04/18 06:13:54;;;;;;;10.70;8.00;;;;;;;4.62;66.93;100219.20;213439;1279;166157;-66
2022/04/18 06:18:58;;;;;;;9.80;6.40;;;;;;;4.76;66.40;100219.29;213502;1279;140335;-66
2022/04/18 06:24:00;;;;;;;7.90;6.30;;;;;;;5.01;65.71;100220.14;213194;1279;140284;-63
2022/04/18 06:29:03;;;;;;;8.70;6.60;;;;;;;5.32;65.32;100221.02;213925;1279;151570;-66
2022/04/18 06:34:06;;;;;;;6.40;5.20;;;;;;;5.53;64.49;100222.94;212943;1278;139220;-68
2022/04/18 06:39:08;;;;;;;9.20;6.30;;;;;;;5.82;64.04;100222.12;212947;1281;139122;-67
2022/04/18 06:44:11;;;;;;;8.80;5.80;;;;;;;6.12;63.46;100222.98;213283;1279;139370;-68
2022/04/18 06:49:14;;;;;;;9.10;5.40;;;;;;;6.58;62.88;100217.73;212683;1279;139833;-67
2022/04/18 06:54:17;;;;;;;9.90;6.10;;;;;;;7.60;61.91;100216.38;212639;1280;140160;-73
2022/04/18 06:59:24;;;;;;;11.20;6.90;;;;;;;8.61;60.01;100209.46;213362;1281;140656;-69
2022/04/18 07:04:27;;;;;;;13.20;6.00;;;;;;;9.27;59.23;100208.69;212818;1277;140192;-66
2022/04/18 07:09:29;;;;;;;6.30;4.70;;;;;;;9.36;57.93;100205.00;212825;1281;140164;-70
2022/04/18 07:14:31;;;;;;;9.50;5.20;;;;;;;9.34;56.70;100200.46;213534;1279;140573;-67
2022/04/18 07:19:35;;;;;;;8.00;5.20;;;;;;;9.58;56.27;100200.45;213446;1278;139084;-70
2022/04/18 07:24:39;;;;;;;8.10;5.30;;;;;;;10.22;55.96;100197.05;214748;1278;141793;-70
2022/04/18 07:29:45;;;;;;;8.30;5.40;;;;;;;10.93;54.59;100196.63;214088;1280;139982;-73
2022/04/18 07:34:50;;;;;;;3.90;3.50;;;;;;;11.33;52.95;100198.41;214883;1277;140292;-70
2022/04/18 07:39:54;;;;;;;9.90;5.90;;;;;;;11.45;51.47;100197.23;213835;1279;140150;-75
2022/04/18 07:44:58;;;;;;;4.30;3.90;;;;;;;11.47;50.68;100198.67;214810;1279;140575;-72
2022/04/18 07:50:00;;;;;;;7.20;4.50;;;;;;;11.41;49.47;100204.82;215118;1278;212919;-73
2022/04/18 07:55:03;;;;;;;3.40;3.10;;;;;;;11.31;49.35;100207.44;215095;1279;141435;-73
2022/04/18 08:00:06;;;;;;;4.60;3.90;;;;;;;11.24;48.46;100213.62;215127;1279;141132;-70
2022/04/18 08:05:09;;;;;;;5.80;4.50;;;;;;;11.13;47.97;100211.58;214870;1280;141506;-75
2022/04/18 08:10:12;;;;;;;3.50;3.20;;;;;;;11.10;47.56;100209.98;212937;1279;141111;-71
2022/04/18 08:15:15;;;;;;;3.20;3.00;;;;;;;11.15;47.43;100204.74;212940;1279;141978;-71
2022/04/18 08:20:18;;;;;;;3.70;3.00;;;;;;;11.29;47.12;100197.25;213376;1279;144856;-72
2022/04/18 08:25:21;;;;;;;5.90;1.80;;;;;;;11.38;46.77;100195.98;213994;1279;141876;-72
2022/04/18 08:30:24;;;;;;;1.70;1.40;;;;;;;11.34;46.08;100195.67;212897;1279;142247;-70
2022/04/18 08:35:26;;;;;;;4.00;2.70;;;;;;;11.51;45.81;100192.52;213914;1278;140524;-71
2022/04/18 08:40:30;;;;;;;2.80;2.00;;;;;;;11.76;45.05;100187.96;213044;1279;142355;-72
2022/04/18 08:45:32;;;;;;;2.90;2.00;;;;;;;11.93;44.14;100184.20;212953;1277;142750;-72
2022/04/18 08:56:02;;;;;;;;;;;;;;;11.75;43.16;100178.95;213019;1278;140905;-70
2022/04/18 09:01:07;;;;;;;3.30;1.50;;;;;;;11.11;42.17;100182.42;213395;1278;138463;-71
2022/04/18 09:06:12;;;;;;;5.60;2.20;;;;;;;11.03;42.39;100172.08;213976;1279;141156;-70
2022/04/18 09:11:33;;;;;;;2.40;1.90;;;;;;;11.25;42.39;100165.23;212874;1279;141316;-71
2022/04/18 09:16:36;;;;;;;2.90;2.20;;;;;;;11.24;41.21;100161.73;213868;1278;141790;-72
2022/04/18 09:22:05;;;;;;;5.80;2.30;;;;;;;11.34;41.42;100158.31;213689;1279;140317;-71
2022/04/18 09:27:27;;;;;;;1.90;1.60;;;;;;;11.70;41.18;100154.20;214945;1279;140220;-73
2022/04/18 09:32:30;;;;;;;4.20;2.80;;;;;;;12.12;40.89;100141.13;213342;1278;140557;-67
2022/04/18 09:37:34;;;;;;;3.70;2.30;;;;;;;12.24;40.05;100137.46;214557;1279;140992;-71
2022/04/18 09:42:37;;;;;;;1.60;1.50;;;;;;;12.32;39.68;100129.72;214813;1277;140793;-70
2022/04/18 09:47:43;;;;;;;1.70;1.60;;;;;;;12.36;39.49;100124.45;215055;1279;144642;-69
2022/04/18 09:52:47;;;;;;;3.80;1.80;;;;;;;12.36;38.76;100126.22;214393;1279;141387;-73
2022/04/18 09:57:50;;;;;;;7.20;1.20;;;;;;;12.36;38.63;100118.90;213654;1278;142340;-71
2022/04/18 10:03:13;;;;;;;1.40;1.30;;;;;;;12.38;38.05;100111.24;212800;1278;140799;-68
2022/04/18 10:08:16;;;;;;;1.20;1.10;;;;;;;12.32;37.77;100101.45;214460;1278;140122;-69
2022/04/18 10:13:20;;;;;;;1.90;1.50;;;;;;;12.31;37.26;100096.23;213511;1279;140657;-71
2022/04/18 10:18:25;;;;;;;5.90;1.80;;;;;;;12.14;37.62;100094.89;214053;1279;140629;-72
2022/04/18 10:23:46;;;;;;;2.60;1.50;;;;;;;12.24;38.07;100084.27;214162;1278;141415;-76
2022/04/18 10:28:51;;;;;;;1.40;1.30;;;;;;;12.43;37.80;100080.80;212934;1278;144921;-71
2022/04/18 10:33:57;;;;;;;2.40;2.10;;;;;;;12.49;37.83;100073.92;212749;1279;142400;-70
2022/04/18 10:39:04;;;;;;;3.20;1.40;;;;;;;12.60;37.87;100074.80;213602;1279;140264;-70
2022/04/18 10:44:10;;;;;;;1.50;1.40;;;;;;;12.64;37.68;100074.19;213123;1278;141361;-73
2022/04/18 10:49:21;;;;;;;8.50;2.90;;;;;;;12.48;37.05;100074.98;212841;1279;845910;-71
2022/04/18 10:54:28;;;;;;;1.70;1.20;;;;;;;12.11;36.62;100071.34;213460;1279;140483;-72
2022/04/18 10:59:34;;;;;;;1.30;1.20;;;;;;;11.71;37.31;100060.55;212647;1279;141679;-70
2022/04/18 11:04:40;;;;;;;1.60;1.30;;;;;;;11.85;37.73;100055.38;212608;1278;139750;-68
2022/04/18 11:09:48;;;;;;;1.20;1.20;;;;;;;11.76;37.75;100056.39;212802;1279;140108;-77
2022/04/18 11:15:05;;;;;;;1.80;1.30;;;;;;;12.16;37.64;100044.52;213742;1279;151714;-72
2022/04/18 11:20:27;;;;;;;2.60;1.50;;;;;;;12.12;37.31;100040.27;212705;1278;140225;-71
2022/04/18 11:25:55;;;;;;;1.50;1.40;;;;;;;11.63;36.81;100046.48;214539;1279;140397;-74
2022/04/18 11:30:59;;;;;;;2.20;1.30;;;;;;;11.25;36.63;100041.99;214062;1279;139658;-70
2022/04/18 11:36:02;;;;;;;0.90;0.90;;;;;;;11.36;36.85;100033.28;215378;1279;139509;-77
2022/04/18 11:41:14;;;;;;;1.10;1.00;;;;;;;11.53;36.94;100029.62;214569;1279;140453;-76
2022/04/18 11:46:17;;;;;;;2.10;1.10;;;;;;;11.67;36.67;100019.11;213459;1279;140169;-69
2022/04/18 11:51:41;;;;;;;1.20;1.10;;;;;;;11.32;36.36;100011.48;214650;1279;140481;-71
2022/04/18 11:56:59;;;;;;;9.10;2.80;;;;;;;11.24;36.27;100012.30;214042;1279;140668;-67
2022/04/18 12:07:42;;;;;;;4.80;1.70;;;;;;;11.79;35.96;99992.04;212691;1279;141031;-71
2022/04/18 12:12:47;;;;;;;2.60;1.20;;;;;;;11.93;36.23;99979.40;214023;1279;140423;-74
2022/04/18 12:17:52;;;;;;;1.60;1.50;;;;;;;11.89;36.58;99976.02;214048;1278;140115;-67
2022/04/18 12:23:00;;;;;;;0.70;0.70;;;;;;;12.09;37.04;99975.77;213725;1279;140258;-74
2022/04/18 12:28:06;;;;;;;2.00;1.70;;;;;;;12.24;35.71;99972.92;213864;1279;140205;-73
2022/04/18 12:33:19;;;;;;;3.90;1.50;;;;;;;12.21;35.43;99965.08;213714;1279;141186;-78
2022/04/18 12:38:36;;;;;;;3.80;2.00;;;;;;;12.10;35.57;99965.21;213386;1277;140517;-72
2022/04/18 12:43:39;;;;;;;1.00;0.80;;;;;;;12.07;35.80;99954.34;214468;1277;140794;-72
2022/04/18 12:48:49;;;;;;;2.00;1.50;;;;;;;11.84;35.80;99955.80;213430;1279;140977;-74
2022/04/18 12:53:54;;;;;;;4.70;2.10;;;;;;;11.48;35.79;99950.36;213463;1279;140760;-67
2022/04/18 12:59:06;;;;;;;1.60;1.40;;;;;;;11.37;35.60;99939.84;213289;1279;211220;-72
2022/04/18 13:04:26;;;;;;;2.30;1.70;;;;;;;11.46;35.99;99934.42;213473;1279;139933;-73
2022/04/18 13:09:29;;;;;;;1.40;1.30;;;;;;;11.47;35.89;99925.58;213880;1279;140280;-72
2022/04/18 13:14:36;;;;;;;1.40;1.00;;;;;;;11.55;35.58;99919.83;213195;1279;142264;-68
2022/04/18 13:19:39;;;;;;;1.50;1.00;;;;;;;11.59;35.14;99913.91;214656;1279;140338;-70
2022/04/18 13:24:42;;;;;;;4.50;1.20;;;;;;;11.59;34.96;99906.29;213318;1277;141293;-65
2022/04/18 13:29:45;;;;;;;3.50;1.10;;;;;;;11.51;34.84;99905.38;213527;1278;140477;-66
2022/04/18 13:34:47;;;;;;;0.80;0.60;;;;;;;11.43;34.68;99902.36;214436;1279;141787;-70
2022/04/18 13:39:50;;;;;;;3.10;1.40;;;;;;;11.48;34.80;99888.71;214919;1277;139867;-67
2022/04/18 13:44:53;;;;;;;1.10;1.10;;;;;;;11.55;34.71;99878.33;215090;1277;141140;-65
2022/04/18 13:49:59;;;;;;;2.10;1.70;;;;;;;11.62;34.45;99876.38;214177;1277;139879;-71
2022/04/18 13:55:02;;;;;;;1.20;1.20;;;;;;;11.53;33.70;99875.19;215421;1279;140249;-73
2022/04/18 14:00:06;;;;;;;1.30;0.90;;;;;;;11.44;34.64;99864.48;215177;1279;140169;-70
2022/04/18 14:05:11;;;;;;;1.80;1.30;;;;;;;11.59;34.63;99856.59;215386;1278;141697;-71
2022/04/18 14:10:14;;;;;;;1.00;1.00;;;;;;;11.63;34.51;99854.39;215044;1279;140639;-71
2022/04/18 14:20:38;;;;;;;1.40;1.30;;;;;;;11.60;34.25;99831.13;214929;1278;140274;-76
2022/04/18 14:25:41;;;;;;;4.00;1.10;;;;;;;11.68;34.17;99828.05;213945;1279;141023;-68
2022/04/18 14:30:44;;;;;;;1.00;1.00;;;;;;;11.68;33.94;99820.30;213581;1278;141356;-72
2022/04/18 14:35:47;;;;;;;1.40;1.20;;;;;;;11.78;34.16;99814.69;214744;1278;140749;-75
2022/04/18 14:40:49;;;;;;;3.50;1.30;;;;;;;11.77;34.08;99813.23;213549;1279;140765;-72
2022/04/18 14:45:53;;;;;;;2.00;1.30;;;;;;;11.72;33.42;99805.10;214743;1278;140437;-71
2022/04/18 14:50:57;;;;;;;1.90;1.60;;;;;;;11.75;33.80;99798.92;214539;1278;140931;-70
2022/04/18 14:55:59;;;;;;;1.80;1.10;;;;;;;11.86;33.73;99797.31;213218;1279;139789;-71
2022/04/18 15:01:04;;;;;;;1.70;1.60;;;;;;;11.89;33.48;99787.87;212769;1278;141034;-69
2022/04/18 15:06:07;;;;;;;1.40;1.20;;;;;;;11.95;33.17;99786.23;212505;1279;140776;-69
2022/04/18 15:11:10;;;;;;;2.90;1.50;;;;;;;11.88;33.02;99784.69;213013;1278;141041;-71
2022/04/18 15:16:13;;;;;;;1.80;1.30;;;;;;;11.73;32.86;99790.55;212501;1279;142757;-73
2022/04/18 15:21:15;;;;;;;3.10;1.70;;;;;;;11.49;32.60;99793.96;213462;1279;140335;-71
2022/04/18 15:26:20;;;;;;;1.30;1.20;;;;;;;11.47;33.21;99781.96;213073;1277;141402;-70
2022/04/18 15:36:44;;;;;;;1.60;1.50;;;;;;;11.36;33.35;99782.04;212919;1279;141994;-69
2022/04/18 15:41:47;;;;;;;3.00;2.10;;;;;;;11.22;33.06;99782.19;212724;1277;140539;-67
2022/04/18 15:46:50;;;;;;;3.50;2.00;;;;;;;11.03;33.03;99783.36;213648;1278;141051;-68
2022/04/18 15:51:54;;;;;;;1.90;1.70;;;;;;;10.91;32.91;99776.55;213543;1279;141276;-68
2022/04/18 15:56:57;;;;;;;1.50;0.90;;;;;;;10.76;33.35;99774.85;215576;1279;141177;-73
2022/04/18 16:01:59;;;;;;;2.20;1.50;;;;;;;10.65;33.76;99768.20;213394;1278;141786;-68
2022/04/18 16:07:07;;;;;;;1.30;1.20;;;;;;;10.55;33.80;99763.81;213329;1277;221993;-70
2022/04/18 16:12:09;;;;;;;1.40;1.30;;;;;;;10.39;34.01;99758.08;215264;1278;141811;-73
2022/04/18 16:17:12;;;;;;;2.70;1.50;;;;;;;10.30;33.88;99755.75;213708;1277;141438;-70
2022/04/18 16:22:15;;;;;;;3.50;2.00;;;;;;;10.23;34.28;99750.14;212837;1279;142313;-72
2022/04/18 16:27:18;;;;;;;3.50;2.30;;;;;;;10.18;34.35;99743.19;213984;1279;142968;-68
2022/04/18 16:32:20;;;;;;;1.40;1.30;;;;;;;10.13;34.71;99741.20;212627;1279;140072;-67
2022/04/18 16:37:24;;;;;;;1.80;1.70;;;;;;;10.07;35.23;99738.25;213863;1278;140239;-71
2022/04/18 16:47:47;;;;;;;1.70;1.60;;;;;;;9.83;35.13;99730.70;212775;1279;140198;-71
2022/04/18 16:52:50;;;;;;;1.50;1.40;;;;;;;9.76;35.56;99733.89;213279;1278;140154;-68
2022/04/18 16:57:54;;;;;;;1.30;1.10;;;;;;;9.68;36.26;99733.54;213183;1279;141494;-70
2022/04/18 17:02:58;;;;;;;3.50;1.40;;;;;;;9.57;36.05;99728.61;213261;1279;141321;-62
2022/04/18 17:08:02;;;;;;;2.10;1.20;;;;;;;9.48;36.46;99729.09;212696;1279;140092;-71
2022/04/18 17:13:05;;;;;;;2.30;1.40;;;;;;;9.39;36.71;99724.88;212720;1279;139223;-66
2022/04/18 17:18:08;;;;;;;1.60;1.50;;;;;;;9.30;37.04;99725.33;214128;1278;141075;-68
2022/04/18 17:23:11;;;;;;;7.10;6.40;;;;;;;9.22;37.21;99724.41;213558;1279;141133;-69
2022/04/18 17:28:14;;;;;;;5.20;4.30;;;;;;;9.13;37.70;99725.95;214160;1277;140259;-70
2022/04/18 17:33:19;;;;;;;8.20;7.00;;;;;;;9.03;38.22;99725.20;213139;1278;142699;-71
2022/04/18 17:38:24;;;;;;;5.60;4.00;;;;;;;8.90;38.42;99720.64;213213;1279;142845;-69
2022/04/18 17:43:27;;;;;;;3.90;2.80;;;;;;;8.75;39.03;99718.73;212647;1279;140526;-68
2022/04/18 17:48:30;;;;;;;2.40;2.00;;;;;;;8.57;39.42;99717.11;213666;1279;140056;-69
2022/04/18 17:58:54;;;;;;;3.90;2.80;;;;;;;8.23;40.48;99709.20;213299;1279;141234;-69
2022/04/18 18:03:58;;;;;;;7.60;3.80;;;;;;;8.07;41.33;99707.73;215205;1279;141192;-69
2022/04/18 18:09:00;;;;;;;5.80;2.60;;;;;;;7.92;41.81;99705.82;213733;1279;140797;-68
2022/04/18 18:14:03;;;;;;;3.90;2.00;;;;;;;7.79;42.90;99710.95;213974;1279;141129;-69
2022/04/18 18:19:06;;;;;;;4.30;2.70;;;;;;;7.67;43.28;99706.77;214192;1278;141031;-68
2022/04/18 18:24:09;;;;;;;3.70;3.40;;;;;;;7.54;43.49;99706.38;215171;1279;140704;-69
2022/04/18 18:29:13;;;;;;;2.00;1.60;;;;;;;7.33;43.58;99703.05;213206;1277;141080;-70
2022/04/18 18:34:15;;;;;;;3.20;1.40;;;;;;;7.11;44.31;99696.42;213643;1279;140766;-69
2022/04/18 18:39:18;;;;;;;3.40;2.00;;;;;;;6.97;46.64;99698.91;212998;1281;142415;-68
2022/04/18 18:44:21;;;;;;;9.70;2.70;;;;;;;6.80;47.07;99700.17;212659;1279;234783;-64
2022/04/18 18:49:24;;;;;;;3.20;2.00;;;;;;;6.67;47.39;99690.51;213781;1279;140116;-69
2022/04/18 18:54:30;;;;;;;4.40;2.80;;;;;;;6.57;47.90;99688.55;212705;1279;139777;-67
2022/04/18 18:59:31;;;;;;;9.20;3.00;;;;;;;6.49;48.05;99686.97;213615;1278;141031;-68
2022/04/18 19:04:34;;;;;;;12.20;5.80;;;;;;;6.43;48.27;99680.24;213484;1281;140000;-68
2022/04/18 19:09:37;;;;;;;10.90;5.40;;;;;;;6.36;48.27;99677.30;213669;1279;140091;-68
2022/04/18 19:14:40;;;;;;;18.80;8.70;;;;;;;6.28;48.37;99677.98;212902;1277;140286;-68
2022/04/18 19:30:27;;;;;;;45.00;25.80;;;;;;;5.90;48.97;99664.27;213328;1278;139072;-68
2022/04/18 19:35:29;;;;;;;100.70;44.90;;;;;;;5.77;48.97;99658.02;212845;1279;140037;-66
2022/04/18 19:40:32;;;;;;;119.10;56.20;;;;;;;5.58;49.23;99652.33;214245;1279;140276;-68
2022/04/18 19:45:34;;;;;;;58.60;27.10;;;;;;;5.44;49.50;99648.93;214271;1279;139929;-67
2022/04/18 19:50:37;;;;;;;25.50;13.50;;;;;;;5.30;49.90;99647.85;213779;1279;139750;-67
2022/04/18 19:55:40;;;;;;;32.30;16.40;;;;;;;5.16;50.03;99646.74;214730;1278;139944;-68
2022/04/18 20:00:42;;;;;;;26.30;13.80;;;;;;;5.00;50.76;99641.68;213080;1278;141050;-67
2022/04/18 20:05:45;;;;;;;28.40;13.80;;;;;;;4.85;50.84;99639.91;214078;1279;139811;-68
2022/04/18 20:10:47;;;;;;;38.40;19.30;;;;;;;4.69;51.59;99633.61;214967;1279;139296;-68
2022/04/18 20:15:50;;;;;;;49.50;25.50;;;;;;;4.56;51.65;99629.88;214576;1279;139619;-67
2022/04/18 20:21:02;;;;;;;35.80;19.10;;;;;;;4.43;52.06;99629.67;213802;1278;140514;-69
2022/04/18 20:26:06;;;;;;;23.60;12.60;;;;;;;4.29;52.70;99631.92;212837;1279;140562;-67
2022/04/18 20:31:09;;;;;;;37.90;16.10;;;;;;;4.20;52.92;99630.72;213659;1279;139858;-68
2022/04/18 20:36:13;;;;;;;47.10;20.30;;;;;;;4.11;53.75;99629.70;214549;1279;139958;-67
2022/04/18 20:41:19;;;;;;;31.20;13.40;;;;;;;4.07;53.61;99626.34;212655;1281;140241;-68
2022/04/18 20:46:23;;;;;;;23.50;8.70;;;;;;;4.14;53.34;99627.04;214086;1279;140521;-67
2022/04/18 20:51:28;;;;;;;14.50;6.70;;;;;;;4.27;52.98;99622.06;213743;1279;140131;-67
2022/04/18 21:01:53;;;;;;;7.00;3.80;;;;;;;4.57;52.93;99607.75;213211;1279;140442;-66
2022/04/18 21:06:57;;;;;;;9.20;4.80;;;;;;;4.73;52.96;99608.55;213216;1279;140165;-67
2022/04/18 21:12:00;;;;;;;9.00;3.70;;;;;;;4.88;52.69;99609.00;213286;1279;140448;-67
2022/04/18 21:17:02;;;;;;;7.10;4.30;;;;;;;5.00;52.76;99605.30;212950;1279;141987;-66
2022/04/18 21:22:05;;;;;;;9.60;5.20;;;;;;;5.11;52.67;99600.41;213191;1279;151118;-67
2022/04/18 21:27:08;;;;;;;11.60;5.80;;;;;;;5.20;52.64;99599.63;212928;1279;140269;-67
2022/04/18 21:32:11;;;;;;;12.80;6.60;;;;;;;5.28;52.43;99597.88;213878;1279;142964;-67
2022/04/18 21:37:14;;;;;;;10.40;5.90;;;;;;;5.37;52.34;99593.73;213073;1279;140057;-65
2022/04/18 21:42:17;;;;;;;6.60;4.60;;;;;;;5.45;52.12;99587.89;213713;1279;141664;-67
2022/04/18 21:47:21;;;;;;;5.40;4.00;;;;;;;5.50;52.07;99580.52;213904;1279;143159;-67
2022/04/18 21:52:24;;;;;;;7.20;4.50;;;;;;;5.54;52.22;99575.52;213416;1278;140734;-67
2022/04/18 21:57:28;;;;;;;8.50;5.20;;;;;;;5.58;52.21;99572.18;214265;1278;140742;-68
2022/04/18 22:02:30;;;;;;;7.60;4.70;;;;;;;5.60;52.22;99563.03;214678;1279;139561;-67
2022/04/18 22:07:33;;;;;;;3.60;3.20;;;;;;;5.61;52.29;99558.73;215276;1279;140286;-68
2022/04/18 22:12:36;;;;;;;4.90;3.90;;;;;;;5.62;52.34;99552.41;215446;1279;140137;-68
2022/04/18 22:17:41;;;;;;;4.60;3.70;;;;;;;5.64;52.18;99540.37;215214;1279;140266;-68
2022/04/18 22:28:10;;;;;;;7.40;3.80;;;;;;;5.69;52.07;99528.03;215054;1279;139286;-67
2022/04/18 22:33:13;;;;;;;6.90;3.20;;;;;;;5.70;51.76;99523.48;215607;1279;140384;-68
2022/04/18 22:38:16;;;;;;;8.00;4.10;;;;;;;5.69;51.74;99518.96;213418;1279;141201;-67
2022/04/18 22:43:19;;;;;;;6.10;4.10;;;;;;;5.69;51.45;99514.48;213589;1279;140054;-66
2022/04/18 22:48:21;;;;;;;10.10;4.00;;;;;;;5.66;51.74;99512.21;212987;1279;813173;-67
2022/04/18 22:53:28;;;;;;;4.10;3.10;;;;;;;5.59;51.80;99504.86;213051;1279;140890;-63
2022/04/18 22:58:37;;;;;;;5.40;3.10;;;;;;;5.50;51.56;99496.44;213206;1279;140028;-66
2022/04/18 23:03:41;;;;;;;6.60;3.80;;;;;;;5.38;51.63;99490.58;214351;1279;140773;-65
2022/04/18 23:08:44;;;;;;;3.70;3.10;;;;;;;5.32;51.69;99485.38;213351;1280;139758;-67
2022/04/18 23:13:46;;;;;;;7.10;4.40;;;;;;;5.29;51.79;99475.17;213554;1279;140604;-66
2022/04/18 23:18:49;;;;;;;4.80;3.60;;;;;;;5.24;51.90;99472.20;213518;1279;142512;-67
2022/04/18 23:23:53;;;;;;;4.00;3.30;;;;;;;5.22;52.08;99466.65;212856;1279;139967;-66
2022/04/18 23:28:56;;;;;;;3.40;2.90;;;;;;;5.16;52.18;99462.61;212974;1280;140199;-67
2022/04/18 23:33:58;;;;;;;5.50;3.70;;;;;;;5.09;52.35;99456.52;213452;1280;139944;-67
2022/04/18 23:39:02;;;;;;;7.00;4.60;;;;;;;5.01;52.31;99453.77;213965;1279;139161;-67
2022/04/18 23:44:10;;;;;;;8.80;3.90;;;;;;;4.95;52.63;99446.61;213686;1279;141013;-67
2022/04/18 23:49:15;;;;;;;5.50;3.70;;;;;;;4.90;52.64;99442.36;214250;1279;138706;-67
2022/04/18 23:54:19;;;;;;;7.00;4.50;;;;;;;4.85;52.76;99441.12;213651;1279;139755;-66
2022/04/18 23:59:22;;;;;;;5.90;4.20;;;;;;;4.86;52.81;99439.57;214266;1280;141201;-68
